createdAt,value
2022-09-25T00:02:01.272Z,29.9
2022-09-25T00:07:23.988Z,29.8
2022-09-25T00:13:04.584Z,29.8
2022-09-25T00:18:41.633Z,29.8
2022-09-25T00:24:19.359Z,29.8
2022-09-25T00:29:57.157Z,29.8
2022-09-25T00:35:19.369Z,29.8
2022-09-25T00:40:57.382Z,29.7
2022-09-25T00:46:03.491Z,29.7
2022-09-25T00:51:40.569Z,29.7
2022-09-25T01:02:41.167Z,29.6
2022-09-25T01:08:18.843Z,29.6
2022-09-25T01:13:56.247Z,29.6
2022-09-25T01:19:18.189Z,29.6
2022-09-25T01:24:57.650Z,29.5
2022-09-25T01:30:34.256Z,29.5
2022-09-25T01:36:12.259Z,29.5
2022-09-25T01:41:49.775Z,29.5
2022-09-25T01:57:53.501Z,29.4
2022-09-25T02:03:31.929Z,29.4
2022-09-25T02:08:53.142Z,29.4
2022-09-25T02:14:14.522Z,29.4
2022-09-25T02:19:21.441Z,29.3
2022-09-25T02:24:43.197Z,29.3
2022-09-25T02:30:04.907Z,29.3
2022-09-25T02:35:31.766Z,29.3
2022-09-25T02:46:15.425Z,29.3
2022-09-25T02:51:37.584Z,29.2
2022-09-25T02:57:19.844Z,29.2
2022-09-25T03:02:56.847Z,29.2
2022-09-25T03:08:19.677Z,29.2
2022-09-25T03:18:48.264Z,29.1
2022-09-25T03:23:55.462Z,29.1
2022-09-25T03:29:32.535Z,29.1
2022-09-25T03:34:39.234Z,29.1
2022-09-25T03:40:00.637Z,29.1
2022-09-25T03:45:21.497Z,29.1
2022-09-25T03:50:42.507Z,29
2022-09-25T04:00:56.095Z,28.9
2022-09-25T04:06:02.987Z,28.9
2022-09-25T04:16:16.336Z,28.9
2022-09-25T04:21:37.914Z,28.9
2022-09-25T04:26:31.104Z,28.9
2022-09-25T04:31:51.422Z,28.9
2022-09-25T04:37:13.459Z,28.8
2022-09-25T04:42:51.138Z,28.8
2022-09-25T04:48:18.054Z,28.8
2022-09-25T04:53:40.271Z,28.8
2022-09-25T04:59:35.500Z,28.8
2022-09-25T05:05:00.252Z,28.7
2022-09-25T05:10:22.588Z,28.7
2022-09-25T05:15:44.945Z,28.8
2022-09-25T05:21:08.135Z,28.8
2022-09-25T05:26:35.968Z,28.9
2022-09-25T05:31:42.883Z,28.9
2022-09-25T05:37:05.138Z,28.9
2022-09-25T05:42:42.999Z,28.9
2022-09-25T05:48:20.938Z,28.9
2022-09-25T05:53:43.669Z,28.9
2022-09-25T05:59:05.783Z,28.9
2022-09-25T06:04:28.537Z,28.9
2022-09-25T06:15:24.286Z,31.9
2022-09-25T06:21:05.953Z,31.1
2022-09-25T06:26:42.982Z,39.6
2022-09-25T06:32:27.245Z,37.6
2022-09-25T06:38:06.490Z,37.5
2022-09-25T06:43:45.786Z,36.4
2022-09-25T06:49:29.879Z,38.8
2022-09-25T06:55:07.911Z,40.5
2022-09-25T07:06:13.779Z,43.5
2022-09-25T07:11:52.151Z,44.2
2022-09-25T07:17:30.027Z,43.7
2022-09-25T07:23:07.961Z,43.5
2022-09-25T07:28:46.651Z,44.1
2022-09-25T07:34:24.686Z,45.3
2022-09-25T07:40:07.828Z,46.3
2022-09-25T07:46:11.605Z,46.8
2022-09-25T07:57:17.207Z,48.4
2022-09-25T08:03:04.381Z,49.3
2022-09-25T08:08:43.769Z,49.8
2022-09-25T08:14:26.779Z,50.6
2022-09-25T08:19:51.944Z,51.4
2022-09-25T08:25:32.139Z,52.1
2022-09-25T08:31:12.466Z,52.7
2022-09-25T08:37:10.966Z,53.4
2022-09-25T08:42:53.514Z,54.1
2022-09-25T08:48:59.547Z,54.7
2022-09-25T08:54:24.224Z,55
2022-09-25T09:00:07.399Z,55.8
2022-09-25T09:05:32.145Z,56.3
2022-09-25T09:11:30.086Z,56.9
2022-09-25T09:16:38.861Z,57.3
2022-09-25T09:22:02.383Z,57.5
2022-09-25T09:27:31.801Z,57.7
2022-09-25T09:32:40.160Z,58
2022-09-25T09:38:35.850Z,56.6
2022-09-25T09:44:01.060Z,54.6
2022-09-25T09:49:40.274Z,57.7
2022-09-25T09:55:24.141Z,59
2022-09-25T10:01:22.400Z,60.4
2022-09-25T10:07:17.935Z,60.6
2022-09-25T10:12:57.241Z,60.8
2022-09-25T10:18:37.868Z,61.3
2022-09-25T10:24:21.350Z,62.1
2022-09-25T20:07:22.256Z,35.2
2022-09-25T20:13:05.007Z,35.1
2022-09-25T20:18:49.440Z,35.1
2022-09-25T20:24:14.614Z,35.1
2022-09-25T20:29:54.974Z,35
2022-09-25T20:41:01.941Z,34.9
2022-09-25T20:52:06.720Z,34.9
2022-09-25T20:57:47.615Z,34.8
2022-09-25T21:03:29.410Z,34.8
2022-09-25T21:14:37.759Z,34.7
2022-09-25T21:20:18.037Z,34.7
2022-09-25T21:25:57.749Z,34.6
2022-09-25T21:37:04.344Z,34.6
2022-09-25T21:42:30.269Z,34.5
2022-09-25T21:48:10.558Z,34.5
2022-09-25T21:53:49.992Z,34.4
2022-09-25T21:59:28.041Z,34.4
2022-09-25T22:05:07.652Z,34.4
2022-09-25T22:10:46.509Z,34.4
2022-09-25T22:21:51.343Z,34.3
2022-09-25T22:27:14.056Z,34.3
2022-09-25T22:38:21.485Z,34.2
2022-09-25T22:43:44.068Z,34.2
2022-09-25T22:49:20.968Z,34.1
2022-09-25T22:54:58.559Z,34.1
2022-09-25T23:00:36.269Z,34.1
2022-09-25T23:06:14.449Z,34
2022-09-25T23:12:14.106Z,34
2022-09-25T23:17:52.657Z,34
2022-09-25T23:23:28.346Z,33.9
2022-09-25T23:28:50.818Z,33.9
2022-09-25T23:34:13.746Z,33.9
2022-09-25T23:39:34.284Z,33.9
2022-09-25T23:50:40.263Z,33.8
2022-09-25T23:56:18.050Z,33.8
